Time;durP1;ratioP1;P1;durP2;ratioP2;P2;SDS_P1;SDS_P2;PMS_P1;PMS_P2;Temp;Humidity;BMP_temperature;BMP_pressure;BME280_temperature;BME280_humidity;BME280_pressure;Samples;Min_cycle;Max_cycle;Signal;HPM_P1;HPM_P2
2021/07/29 00:00:07;;;;;;;;;;;;;;;;;;1028636;28;20036;-79
2021/07/29 00:00:37;;;;;;;;;;;;;;;;;;1024881;29;20549;-78
2021/07/29 00:01:07;;;;;;;;;;;;;;;;;;1020833;29;19911;-78
2021/07/29 00:01:38;;;;;;;;;;;;;;;;;;1020937;29;20377;-78
2021/07/29 00:02:08;;;;;;;;;;;;;;;;;;1029299;28;19917;-78
2021/07/29 00:02:38;;;;;;;;;;;;;;;;;;1033106;28;20001;-78
2021/07/29 00:03:08;;;;;;;;;;;;;;;;;;1037582;28;20281;-78
2021/07/29 00:03:39;;;;;;;;;;;;;;;;;;1037488;28;19955;-78
2021/07/29 00:04:09;;;;;;;;;;;;;;;;;;1033427;28;19972;-78
2021/07/29 00:04:39;;;;;;;;;;;;;;;;;;1037696;28;19916;-77
2021/07/29 00:05:10;;;;;;;;;;;;;;;;;;1033514;28;19910;-79
2021/07/29 00:05:40;;;;;;;;;;;;;;;;;;1029355;28;19910;-78
2021/07/29 00:06:10;;;;;;;;;;;;;;;;;;1033642;28;19910;-79
2021/07/29 00:06:40;;;;;;;;;;;;;;;;;;1033554;28;19914;-78
2021/07/29 00:07:11;;;;;;;;;;;;;;;;;;1037696;28;19909;-78
2021/07/29 00:07:41;;;;;;;;;;;;;;;;;;1041717;28;19909;-77
2021/07/29 00:08:11;;;;;;;;;;;;;;;;;;1041292;28;19916;-77
2021/07/29 00:08:41;;;;;;;;;;;;;;;;;;1041525;28;20371;-77
2021/07/29 00:09:12;;;;;;;;;;;;;;;;;;1041480;28;19905;-78
2021/07/29 00:09:42;;;;;;;;;;;;;;;;;;1032993;28;20519;-78
2021/07/29 00:10:12;;;;;;;;;;;;;;;;;;1032914;28;19905;-77
2021/07/29 00:10:42;;;;;;;;;;;;;;;;;;1032869;28;19914;-79
2021/07/29 00:11:12;;;;;;;;;;;;;;;;;;1032948;28;20259;-78
2021/07/29 00:11:43;;;;;;;;;;;;;;;;;;1037268;28;20000;-78
2021/07/29 00:12:13;;;;;;;;;;;;;;;;;;1032816;28;19910;-78
2021/07/29 00:12:43;;;;;;;;;;;;;;;;;;1032675;28;19914;-78
2021/07/29 00:13:14;;;;;;;;;;;;;;;;;;1033014;28;19953;-79
2021/07/29 00:13:44;;;;;;;;;;;;;;;;;;1033012;28;19909;-78
2021/07/29 00:14:14;;;;;;;;;;;;;;;;;;1037004;28;19909;-78
2021/07/29 00:14:50;;;;;;;;;;;;;;;;;;1032780;28;19977;-78
2021/07/29 00:15:20;;;;;;;;;;;;;;;;;;1032902;28;19929;-78
2021/07/29 00:15:51;;;;;;;;;;;;;;;;;;1028761;28;19906;-78
2021/07/29 00:16:22;;;;;;;;;;;;;;;;;;1030360;28;20352;-78
2021/07/29 00:16:58;;;;;;;;;;;;;;;;;;1034755;28;19906;-79
2021/07/29 00:19:04;;;;;;;;;;;;;;;;;;1038772;28;19905;-79
2021/07/29 00:19:34;;;;;;;;;;;;;;;;;;1036758;28;19913;-79
2021/07/29 00:20:06;;;;;;;;;;;;;;;;;;1036945;28;19913;-78
2021/07/29 00:20:39;;;;;;;;;;;;;;;;;;1036805;28;19913;-78
2021/07/29 00:21:09;;;;;;;;;;;;;;;;;;1037494;28;19996;-79
2021/07/29 00:21:39;;;;;;;;;;;;;;;;;;1041048;28;19905;-78
2021/07/29 00:22:10;;;;;;;;;;;;;;;;;;1036896;28;20055;-78
2021/07/29 00:22:40;;;;;;;;;;;;;;;;;;1036572;28;19914;-78
2021/07/29 00:23:10;;;;;;;;;;;;;;;;;;1036782;28;19909;-78
2021/07/29 00:23:41;;;;;;;;;;;;;;;;;;1032702;28;20367;-77
2021/07/29 00:24:11;;;;;;;;;;;;;;;;;;1036727;28;19932;-79
2021/07/29 00:24:41;;;;;;;;;;;;;;;;;;1032592;28;19910;-79
2021/07/29 00:25:12;;;;;;;;;;;;;;;;;;1032767;28;19913;-79
2021/07/29 00:25:43;;;;;;;;;;;;;;;;;;1032664;28;19910;-77
2021/07/29 00:26:13;;;;;;;;;;;;;;;;;;1032865;28;19910;-78
2021/07/29 00:26:43;;;;;;;;;;;;;;;;;;1032764;28;19917;-78
2021/07/29 00:27:13;;;;;;;;;;;;;;;;;;1028656;28;19906;-78
2021/07/29 00:27:44;;;;;;;;;;;;;;;;;;1028931;28;19954;-78
2021/07/29 00:28:14;;;;;;;;;;;;;;;;;;1032769;28;19906;-78
2021/07/29 00:28:44;;;;;;;;;;;;;;;;;;1032761;28;20008;-78
2021/07/29 00:29:14;;;;;;;;;;;;;;;;;;1028492;28;19962;-78
2021/07/29 00:29:45;;;;;;;;;;;;;;;;;;1028867;28;19933;-78
2021/07/29 00:30:15;;;;;;;;;;;;;;;;;;1028777;28;19910;-78
2021/07/29 00:30:45;;;;;;;;;;;;;;;;;;1032793;28;19917;-78
2021/07/29 00:31:16;;;;;;;;;;;;;;;;;;1041000;28;19913;-78
2021/07/29 00:31:46;;;;;;;;;;;;;;;;;;1041326;28;19998;-78
2021/07/29 00:32:16;;;;;;;;;;;;;;;;;;1041347;28;19940;-78
2021/07/29 00:32:46;;;;;;;;;;;;;;;;;;1032434;28;19933;-79
2021/07/29 00:33:17;;;;;;;;;;;;;;;;;;1032816;28;19906;-78
2021/07/29 00:33:47;;;;;;;;;;;;;;;;;;1032742;28;19916;-79
2021/07/29 00:34:17;;;;;;;;;;;;;;;;;;1032857;28;19905;-78
2021/07/29 00:34:47;;;;;;;;;;;;;;;;;;1036615;28;20453;-78
2021/07/29 00:35:18;;;;;;;;;;;;;;;;;;1036820;28;19906;-78
2021/07/29 00:35:48;;;;;;;;;;;;;;;;;;1036862;28;19952;-78
2021/07/29 00:36:18;;;;;;;;;;;;;;;;;;1036950;28;19937;-78
2021/07/29 00:36:48;;;;;;;;;;;;;;;;;;1036846;28;19910;-78
2021/07/29 00:37:18;;;;;;;;;;;;;;;;;;1036721;28;20395;-78
2021/07/29 00:37:49;;;;;;;;;;;;;;;;;;1036890;28;19917;-78
2021/07/29 00:38:19;;;;;;;;;;;;;;;;;;1036930;28;19909;-78
2021/07/29 00:38:50;;;;;;;;;;;;;;;;;;1040857;28;19913;-78
2021/07/29 00:39:20;;;;;;;;;;;;;;;;;;1040742;28;19917;-78
2021/07/29 00:39:50;;;;;;;;;;;;;;;;;;1040786;28;20390;-79
2021/07/29 00:40:20;;;;;;;;;;;;;;;;;;1040510;28;19909;-78
2021/07/29 00:40:51;;;;;;;;;;;;;;;;;;1036815;28;19916;-79
2021/07/29 00:41:21;;;;;;;;;;;;;;;;;;1036667;28;19956;-79
2021/07/29 00:41:52;;;;;;;;;;;;;;;;;;1036891;28;19917;-79
2021/07/29 00:42:22;;;;;;;;;;;;;;;;;;1036885;28;19913;-79
2021/07/29 00:42:52;;;;;;;;;;;;;;;;;;1041035;28;19914;-79
2021/07/29 00:43:23;;;;;;;;;;;;;;;;;;1040944;28;19909;-79
2021/07/29 00:43:53;;;;;;;;;;;;;;;;;;1040990;28;19910;-79
2021/07/29 00:44:24;;;;;;;;;;;;;;;;;;1041006;28;19916;-79
2021/07/29 00:44:54;;;;;;;;;;;;;;;;;;1036669;28;20391;-79
2021/07/29 00:45:24;;;;;;;;;;;;;;;;;;1036804;28;20180;-79
2021/07/29 00:45:56;;;;;;;;;;;;;;;;;;1032776;28;19916;-79
2021/07/29 00:46:26;;;;;;;;;;;;;;;;;;1032945;28;19953;-79
2021/07/29 00:46:57;;;;;;;;;;;;;;;;;;1032714;28;20330;-78
2021/07/29 00:47:27;;;;;;;;;;;;;;;;;;1033330;28;19910;-79
2021/07/29 00:47:57;;;;;;;;;;;;;;;;;;1036986;28;19913;-79
2021/07/29 00:48:27;;;;;;;;;;;;;;;;;;1037329;28;19910;-79
2021/07/29 00:48:58;;;;;;;;;;;;;;;;;;1037555;28;19913;-79
2021/07/29 00:49:28;;;;;;;;;;;;;;;;;;1037459;28;19997;-80
2021/07/29 00:49:58;;;;;;;;;;;;;;;;;;1037031;28;19992;-80
2021/07/29 00:50:29;;;;;;;;;;;;;;;;;;1029644;28;19916;-81
2021/07/29 00:50:59;;;;;;;;;;;;;;;;;;1029443;28;19910;-80
2021/07/29 00:51:29;;;;;;;;;;;;;;;;;;1029607;28;19910;-79
2021/07/29 00:52:00;;;;;;;;;;;;;;;;;;1028951;28;19925;-79
2021/07/29 00:52:30;;;;;;;;;;;;;;;;;;1037889;28;19917;-80
2021/07/29 00:53:00;;;;;;;;;;;;;;;;;;1041302;28;20417;-80
2021/07/29 00:53:30;;;;;;;;;;;;;;;;;;1041562;28;19913;-79
2021/07/29 00:54:01;;;;;;;;;;;;;;;;;;1037717;28;19971;-80
2021/07/29 00:54:35;;;;;;;;;;;;;;;;;;1037568;28;19910;-80
2021/07/29 00:55:05;;;;;;;;;;;;;;;;;;1033359;28;20388;-81
2021/07/29 00:55:35;;;;;;;;;;;;;;;;;;1034175;28;19953;-80
2021/07/29 00:56:05;;;;;;;;;;;;;;;;;;1037297;28;19909;-79
2021/07/29 00:56:36;;;;;;;;;;;;;;;;;;1033164;28;19906;-79
2021/07/29 00:57:06;;;;;;;;;;;;;;;;;;1033085;28;19910;-79
2021/07/29 00:57:36;;;;;;;;;;;;;;;;;;1037022;28;19909;-79
2021/07/29 00:58:07;;;;;;;;;;;;;;;;;;1036842;28;20003;-79
2021/07/29 00:58:37;;;;;;;;;;;;;;;;;;1036642;28;19909;-79
2021/07/29 00:59:07;;;;;;;;;;;;;;;;;;1036740;28;19909;-79
2021/07/29 00:59:38;;;;;;;;;;;;;;;;;;1028477;28;20459;-79
2021/07/29 01:00:08;;;;;;;;;;;;;;;;;;1028573;28;19911;-79
2021/07/29 01:00:38;;;;;;;;;;;;;;;;;;1032800;28;19917;-78
2021/07/29 01:01:08;;;;;;;;;;;;;;;;;;1032695;28;20321;-79
2021/07/29 01:01:39;;;;;;;;;;;;;;;;;;1040859;28;19953;-78
2021/07/29 01:02:09;;;;;;;;;;;;;;;;;;1036625;28;20268;-79
2021/07/29 01:02:39;;;;;;;;;;;;;;;;;;1036472;28;19913;-80
2021/07/29 01:03:09;;;;;;;;;;;;;;;;;;1036716;28;19910;-80
2021/07/29 01:03:40;;;;;;;;;;;;;;;;;;1036542;28;19906;-79
2021/07/29 01:04:10;;;;;;;;;;;;;;;;;;1036937;28;19917;-80
2021/07/29 01:04:40;;;;;;;;;;;;;;;;;;1028389;28;20343;-80
2021/07/29 01:05:10;;;;;;;;;;;;;;;;;;1024781;29;19910;-78
2021/07/29 01:05:41;;;;;;;;;;;;;;;;;;1028686;28;20008;-79
2021/07/29 01:06:11;;;;;;;;;;;;;;;;;;1024664;29;19910;-79
2021/07/29 01:06:41;;;;;;;;;;;;;;;;;;1029174;28;19912;-80
2021/07/29 01:07:11;;;;;;;;;;;;;;;;;;1028683;28;20004;-80
2021/07/29 01:07:42;;;;;;;;;;;;;;;;;;1024985;29;19906;-81
2021/07/29 01:08:13;;;;;;;;;;;;;;;;;;1028959;28;19910;-79
2021/07/29 01:08:43;;;;;;;;;;;;;;;;;;1029196;28;19914;-79
2021/07/29 01:09:13;;;;;;;;;;;;;;;;;;1032992;28;20395;-79
2021/07/29 01:09:43;;;;;;;;;;;;;;;;;;1029242;28;19965;-80
2021/07/29 01:10:14;;;;;;;;;;;;;;;;;;1032844;28;19913;-80
2021/07/29 01:10:44;;;;;;;;;;;;;;;;;;1033083;28;19920;-79
2021/07/29 01:11:14;;;;;;;;;;;;;;;;;;1028658;28;19938;-80
2021/07/29 01:11:44;;;;;;;;;;;;;;;;;;1032714;28;19960;-80
2021/07/29 01:12:15;;;;;;;;;;;;;;;;;;1028625;28;19917;-80
2021/07/29 01:12:45;;;;;;;;;;;;;;;;;;1032392;28;20470;-80
2021/07/29 01:13:15;;;;;;;;;;;;;;;;;;1032702;28;19982;-79
2021/07/29 01:13:45;;;;;;;;;;;;;;;;;;1032606;28;19996;-78
2021/07/29 01:14:16;;;;;;;;;;;;;;;;;;1032544;28;19906;-80
2021/07/29 01:14:46;;;;;;;;;;;;;;;;;;1024525;28;19906;-78
2021/07/29 01:15:16;;;;;;;;;;;;;;;;;;1024658;28;19965;-79
2021/07/29 01:15:47;;;;;;;;;;;;;;;;;;1028699;28;20257;-80
2021/07/29 01:16:17;;;;;;;;;;;;;;;;;;1032749;28;19901;-80
2021/07/29 01:16:47;;;;;;;;;;;;;;;;;;1040995;28;19906;-80
2021/07/29 01:17:17;;;;;;;;;;;;;;;;;;1036608;28;19905;-79
2021/07/29 01:17:48;;;;;;;;;;;;;;;;;;1036683;28;20314;-79
2021/07/29 01:18:18;;;;;;;;;;;;;;;;;;1036703;28;19952;-79
2021/07/29 01:18:48;;;;;;;;;;;;;;;;;;1032454;28;20009;-77
2021/07/29 01:19:18;;;;;;;;;;;;;;;;;;1036559;28;20403;-79
2021/07/29 01:19:49;;;;;;;;;;;;;;;;;;1028490;28;19997;-77
2021/07/29 01:20:19;;;;;;;;;;;;;;;;;;1028623;28;20009;-79
2021/07/29 01:20:49;;;;;;;;;;;;;;;;;;1032672;28;20341;-79
2021/07/29 01:21:19;;;;;;;;;;;;;;;;;;1032539;28;20000;-79
2021/07/29 01:21:50;;;;;;;;;;;;;;;;;;1040856;28;19913;-79
2021/07/29 01:22:20;;;;;;;;;;;;;;;;;;1040729;28;19912;-79
2021/07/29 01:22:50;;;;;;;;;;;;;;;;;;1036520;28;19974;-79
2021/07/29 01:23:20;;;;;;;;;;;;;;;;;;1032522;28;20430;-79
2021/07/29 01:23:51;;;;;;;;;;;;;;;;;;1028615;28;19910;-79
2021/07/29 01:24:21;;;;;;;;;;;;;;;;;;1020527;29;20468;-79
2021/07/29 01:24:51;;;;;;;;;;;;;;;;;;1024466;28;20029;-79
2021/07/29 01:25:21;;;;;;;;;;;;;;;;;;1028403;28;19938;-79
2021/07/29 01:25:52;;;;;;;;;;;;;;;;;;1032503;28;19910;-79
2021/07/29 01:26:22;;;;;;;;;;;;;;;;;;1032386;28;20446;-79
2021/07/29 01:26:52;;;;;;;;;;;;;;;;;;1036607;28;19909;-79
2021/07/29 01:27:22;;;;;;;;;;;;;;;;;;1036581;28;19910;-79
2021/07/29 01:27:53;;;;;;;;;;;;;;;;;;1036646;28;19980;-79
2021/07/29 01:28:24;;;;;;;;;;;;;;;;;;1036688;28;19909;-79
2021/07/29 01:28:54;;;;;;;;;;;;;;;;;;1032394;28;19910;-79
2021/07/29 01:29:24;;;;;;;;;;;;;;;;;;1028422;28;20452;-79
2021/07/29 01:29:54;;;;;;;;;;;;;;;;;;1024626;28;19997;-79
2021/07/29 01:30:24;;;;;;;;;;;;;;;;;;1028488;28;20030;-79
2021/07/29 01:30:55;;;;;;;;;;;;;;;;;;1028675;28;19942;-80
2021/07/29 01:31:28;;;;;;;;;;;;;;;;;;1028456;28;20403;-80
2021/07/29 01:31:58;;;;;;;;;;;;;;;;;;1032626;28;19910;-80
2021/07/29 01:32:29;;;;;;;;;;;;;;;;;;1033282;28;19910;-80
2021/07/29 01:32:59;;;;;;;;;;;;;;;;;;1037146;28;19921;-80
2021/07/29 01:33:29;;;;;;;;;;;;;;;;;;1041171;28;19913;-80
2021/07/29 01:33:59;;;;;;;;;;;;;;;;;;1036734;28;19924;-79
2021/07/29 01:34:30;;;;;;;;;;;;;;;;;;1032690;28;19914;-79
2021/07/29 01:35:00;;;;;;;;;;;;;;;;;;1033012;28;19917;-80
2021/07/29 01:35:30;;;;;;;;;;;;;;;;;;1032848;28;19978;-80
2021/07/29 01:36:00;;;;;;;;;;;;;;;;;;1036933;28;19993;-81
2021/07/29 01:36:31;;;;;;;;;;;;;;;;;;1037160;28;20003;-79
2021/07/29 01:37:01;;;;;;;;;;;;;;;;;;1029063;28;19953;-79
2021/07/29 01:37:31;;;;;;;;;;;;;;;;;;1033657;28;19910;-81
2021/07/29 01:38:02;;;;;;;;;;;;;;;;;;1029098;28;20348;-79
2021/07/29 01:38:32;;;;;;;;;;;;;;;;;;1029073;28;19949;-80
2021/07/29 01:39:02;;;;;;;;;;;;;;;;;;1033156;28;19910;-80
2021/07/29 01:39:32;;;;;;;;;;;;;;;;;;1032898;28;19910;-79
2021/07/29 01:40:03;;;;;;;;;;;;;;;;;;1033043;28;19913;-79
2021/07/29 01:40:33;;;;;;;;;;;;;;;;;;1032955;28;20346;-80
2021/07/29 01:41:03;;;;;;;;;;;;;;;;;;1036954;28;19937;-80
2021/07/29 01:41:33;;;;;;;;;;;;;;;;;;1037458;28;19909;-80
2021/07/29 01:42:04;;;;;;;;;;;;;;;;;;1033028;28;19933;-80
2021/07/29 01:42:34;;;;;;;;;;;;;;;;;;1032974;28;19960;-81
2021/07/29 01:43:04;;;;;;;;;;;;;;;;;;1037706;28;19953;-81
2021/07/29 01:43:35;;;;;;;;;;;;;;;;;;1037234;28;19910;-80
2021/07/29 01:44:05;;;;;;;;;;;;;;;;;;1041589;28;20004;-79
2021/07/29 01:44:35;;;;;;;;;;;;;;;;;;1041327;28;19916;-79
2021/07/29 01:45:05;;;;;;;;;;;;;;;;;;1041500;28;19912;-79
2021/07/29 01:45:36;;;;;;;;;;;;;;;;;;1036614;28;19909;-79
2021/07/29 01:46:06;;;;;;;;;;;;;;;;;;1036441;28;19909;-79
2021/07/29 01:46:36;;;;;;;;;;;;;;;;;;1036609;28;20384;-78
2021/07/29 01:47:06;;;;;;;;;;;;;;;;;;1032502;28;19906;-78
2021/07/29 01:47:37;;;;;;;;;;;;;;;;;;1036617;28;19952;-78
2021/07/29 01:48:07;;;;;;;;;;;;;;;;;;1036423;28;19909;-78
2021/07/29 01:48:37;;;;;;;;;;;;;;;;;;1032495;28;19957;-78
2021/07/29 01:49:07;;;;;;;;;;;;;;;;;;1032374;28;19910;-79
2021/07/29 01:49:38;;;;;;;;;;;;;;;;;;1032615;28;20340;-78
2021/07/29 01:50:08;;;;;;;;;;;;;;;;;;1028219;28;19910;-78
2021/07/29 01:50:38;;;;;;;;;;;;;;;;;;1028437;28;20045;-78
2021/07/29 01:51:09;;;;;;;;;;;;;;;;;;1028310;28;19946;-79
2021/07/29 01:51:39;;;;;;;;;;;;;;;;;;1029363;28;19907;-79
2021/07/29 01:52:10;;;;;;;;;;;;;;;;;;1033587;28;20275;-78
2021/07/29 01:52:40;;;;;;;;;;;;;;;;;;1033367;28;19913;-79
2021/07/29 01:53:10;;;;;;;;;;;;;;;;;;1037337;28;19905;-80
2021/07/29 01:53:41;;;;;;;;;;;;;;;;;;1033412;28;19914;-79
2021/07/29 01:54:11;;;;;;;;;;;;;;;;;;1033588;28;19905;-79
2021/07/29 01:54:41;;;;;;;;;;;;;;;;;;1033416;28;19913;-79
2021/07/29 01:55:12;;;;;;;;;;;;;;;;;;1033443;28;19906;-79
2021/07/29 01:55:42;;;;;;;;;;;;;;;;;;1033367;28;19905;-79
2021/07/29 01:56:12;;;;;;;;;;;;;;;;;;1033509;28;19902;-79
2021/07/29 01:56:43;;;;;;;;;;;;;;;;;;1029308;28;19913;-79
2021/07/29 01:57:13;;;;;;;;;;;;;;;;;;1029216;28;19906;-78
2021/07/29 01:57:44;;;;;;;;;;;;;;;;;;1029154;28;19943;-79
2021/07/29 01:58:14;;;;;;;;;;;;;;;;;;1029338;28;20376;-79
2021/07/29 01:58:45;;;;;;;;;;;;;;;;;;1029152;28;19950;-78
2021/07/29 01:59:15;;;;;;;;;;;;;;;;;;1029401;28;19925;-79
2021/07/29 01:59:45;;;;;;;;;;;;;;;;;;1029375;28;20032;-79
2021/07/29 02:00:15;;;;;;;;;;;;;;;;;;1033316;28;20458;-79
2021/07/29 02:00:45;;;;;;;;;;;;;;;;;;1029169;28;19965;-80
2021/07/29 02:01:16;;;;;;;;;;;;;;;;;;1029125;28;19906;-79
2021/07/29 02:01:46;;;;;;;;;;;;;;;;;;1033263;28;19968;-80
2021/07/29 02:02:16;;;;;;;;;;;;;;;;;;1033476;28;19955;-80
2021/07/29 02:02:46;;;;;;;;;;;;;;;;;;1033188;28;20376;-79
2021/07/29 02:03:17;;;;;;;;;;;;;;;;;;1037334;28;19901;-79
2021/07/29 02:03:47;;;;;;;;;;;;;;;;;;1037288;28;19906;-80
2021/07/29 02:04:17;;;;;;;;;;;;;;;;;;1037295;28;19936;-80
2021/07/29 02:04:48;;;;;;;;;;;;;;;;;;1033556;28;20280;-80
2021/07/29 02:05:18;;;;;;;;;;;;;;;;;;1025134;29;19903;-80
2021/07/29 02:05:48;;;;;;;;;;;;;;;;;;1029576;28;19907;-79
2021/07/29 02:06:18;;;;;;;;;;;;;;;;;;1025380;29;20268;-79
2021/07/29 02:06:49;;;;;;;;;;;;;;;;;;1029169;28;19937;-80
2021/07/29 02:07:19;;;;;;;;;;;;;;;;;;1037414;28;19909;-79
2021/07/29 02:07:49;;;;;;;;;;;;;;;;;;1033194;28;19913;-80
2021/07/29 02:08:19;;;;;;;;;;;;;;;;;;1033597;28;20001;-79
2021/07/29 02:08:50;;;;;;;;;;;;;;;;;;1037375;28;20080;-80
2021/07/29 02:09:20;;;;;;;;;;;;;;;;;;1033205;28;19912;-79
2021/07/29 02:09:50;;;;;;;;;;;;;;;;;;1033867;28;20280;-79
2021/07/29 02:10:20;;;;;;;;;;;;;;;;;;1033607;28;19906;-79
2021/07/29 02:10:51;;;;;;;;;;;;;;;;;;1029960;28;19906;-79
2021/07/29 02:11:24;;;;;;;;;;;;;;;;;;1029765;28;19906;-79
2021/07/29 02:11:54;;;;;;;;;;;;;;;;;;1033389;28;19948;-79
2021/07/29 02:12:24;;;;;;;;;;;;;;;;;;1034227;28;20374;-81
2021/07/29 02:12:55;;;;;;;;;;;;;;;;;;1038106;28;19991;-79
2021/07/29 02:13:25;;;;;;;;;;;;;;;;;;1033588;28;19917;-81
2021/07/29 02:13:55;;;;;;;;;;;;;;;;;;1038084;28;19980;-79
2021/07/29 02:14:25;;;;;;;;;;;;;;;;;;1036636;28;19996;-80
2021/07/29 02:14:56;;;;;;;;;;;;;;;;;;1029243;29;19949;-79
2021/07/29 02:15:26;;;;;;;;;;;;;;;;;;1033236;28;19898;-81
2021/07/29 02:15:56;;;;;;;;;;;;;;;;;;1029041;28;19929;-80
2021/07/29 02:16:26;;;;;;;;;;;;;;;;;;1032066;28;19941;-80
2021/07/29 02:16:57;;;;;;;;;;;;;;;;;;1037443;28;19949;-79
2021/07/29 02:17:27;;;;;;;;;;;;;;;;;;1037313;28;20014;-80
2021/07/29 02:17:57;;;;;;;;;;;;;;;;;;1041915;28;19909;-79
2021/07/29 02:18:28;;;;;;;;;;;;;;;;;;1042382;28;19909;-79
2021/07/29 02:18:58;;;;;;;;;;;;;;;;;;1037407;28;20259;-78
2021/07/29 02:19:28;;;;;;;;;;;;;;;;;;1037205;28;19949;-79
2021/07/29 02:19:59;;;;;;;;;;;;;;;;;;1037291;28;19902;-79
2021/07/29 02:20:29;;;;;;;;;;;;;;;;;;1033497;28;19966;-78
2021/07/29 02:20:59;;;;;;;;;;;;;;;;;;1033173;28;19906;-79
2021/07/29 02:21:30;;;;;;;;;;;;;;;;;;1029137;28;19906;-79
2021/07/29 02:22:00;;;;;;;;;;;;;;;;;;1025426;28;20286;-79
2021/07/29 02:22:30;;;;;;;;;;;;;;;;;;1029348;28;19910;-79
2021/07/29 02:23:00;;;;;;;;;;;;;;;;;;1029053;28;20300;-79
2021/07/29 02:23:34;;;;;;;;;;;;;;;;;;1033152;28;19952;-79
2021/07/29 02:24:04;;;;;;;;;;;;;;;;;;1037267;28;19902;-79
2021/07/29 02:24:34;;;;;;;;;;;;;;;;;;1037315;28;19906;-79
2021/07/29 02:25:05;;;;;;;;;;;;;;;;;;1037722;28;19906;-79
2021/07/29 02:25:35;;;;;;;;;;;;;;;;;;1037415;28;19906;-79
2021/07/29 02:26:05;;;;;;;;;;;;;;;;;;1041586;28;19917;-78
2021/07/29 02:26:36;;;;;;;;;;;;;;;;;;1033340;28;19944;-79
2021/07/29 02:27:06;;;;;;;;;;;;;;;;;;1033324;28;19924;-81
2021/07/29 02:27:37;;;;;;;;;;;;;;;;;;1029304;28;19961;-82
2021/07/29 02:28:07;;;;;;;;;;;;;;;;;;1029784;28;19902;-80
2021/07/29 02:28:38;;;;;;;;;;;;;;;;;;1032480;28;19911;-78
2021/07/29 02:29:09;;;;;;;;;;;;;;;;;;1032420;28;19903;-79
2021/07/29 02:29:39;;;;;;;;;;;;;;;;;;1032517;28;19949;-80
2021/07/29 02:30:09;;;;;;;;;;;;;;;;;;1036586;28;20391;-80
2021/07/29 02:30:39;;;;;;;;;;;;;;;;;;1032601;28;19906;-80
2021/07/29 02:31:11;;;;;;;;;;;;;;;;;;1032151;28;20276;-80
2021/07/29 02:31:41;;;;;;;;;;;;;;;;;;1034980;28;19906;-80
2021/07/29 02:32:11;;;;;;;;;;;;;;;;;;1037638;28;19956;-80
2021/07/29 02:32:41;;;;;;;;;;;;;;;;;;1037218;28;20351;-79
2021/07/29 02:33:12;;;;;;;;;;;;;;;;;;1037324;28;19910;-80
2021/07/29 02:33:42;;;;;;;;;;;;;;;;;;1037524;28;19910;-79
2021/07/29 02:34:12;;;;;;;;;;;;;;;;;;1037433;28;19910;-79
2021/07/29 02:34:42;;;;;;;;;;;;;;;;;;1041823;28;19913;-79
2021/07/29 02:35:13;;;;;;;;;;;;;;;;;;1037543;28;19909;-80
2021/07/29 02:35:43;;;;;;;;;;;;;;;;;;1037631;28;19996;-80
2021/07/29 02:36:14;;;;;;;;;;;;;;;;;;1037584;28;19913;-79
2021/07/29 02:36:45;;;;;;;;;;;;;;;;;;1037486;28;19920;-79
2021/07/29 02:37:15;;;;;;;;;;;;;;;;;;1041662;28;19916;-79
2021/07/29 02:37:45;;;;;;;;;;;;;;;;;;1041940;28;19909;-80
2021/07/29 02:38:15;;;;;;;;;;;;;;;;;;1037349;28;19910;-79
2021/07/29 02:38:46;;;;;;;;;;;;;;;;;;1033564;28;19977;-80
2021/07/29 02:39:16;;;;;;;;;;;;;;;;;;1033806;28;19914;-79
2021/07/29 02:39:46;;;;;;;;;;;;;;;;;;1034041;28;20443;-79
2021/07/29 02:40:17;;;;;;;;;;;;;;;;;;1037725;28;19910;-79
2021/07/29 02:40:47;;;;;;;;;;;;;;;;;;1042109;28;19916;-81
2021/07/29 02:41:19;;;;;;;;;;;;;;;;;;1042674;28;19973;-80
2021/07/29 02:41:49;;;;;;;;;;;;;;;;;;1034462;28;19941;-80
2021/07/29 02:42:19;;;;;;;;;;;;;;;;;;1030009;28;20013;-80
2021/07/29 02:42:49;;;;;;;;;;;;;;;;;;1030059;28;19910;-80
2021/07/29 02:43:20;;;;;;;;;;;;;;;;;;1029620;28;19902;-79
2021/07/29 02:43:50;;;;;;;;;;;;;;;;;;1038269;28;19945;-80
2021/07/29 02:44:20;;;;;;;;;;;;;;;;;;1042666;28;20275;-79
2021/07/29 02:44:50;;;;;;;;;;;;;;;;;;1034342;28;19945;-80
2021/07/29 02:45:21;;;;;;;;;;;;;;;;;;1030169;28;19929;-80
2021/07/29 02:45:51;;;;;;;;;;;;;;;;;;1026207;29;19911;-79
2021/07/29 02:46:21;;;;;;;;;;;;;;;;;;1026160;28;19934;-79
2021/07/29 02:46:51;;;;;;;;;;;;;;;;;;1029979;28;19910;-79
2021/07/29 02:47:22;;;;;;;;;;;;;;;;;;1029644;28;19917;-79
2021/07/29 02:47:52;;;;;;;;;;;;;;;;;;1033442;28;20036;-78
2021/07/29 02:48:22;;;;;;;;;;;;;;;;;;1033362;28;19916;-77
2021/07/29 02:48:53;;;;;;;;;;;;;;;;;;1037340;28;19917;-80
2021/07/29 02:49:23;;;;;;;;;;;;;;;;;;1037631;28;19964;-79
2021/07/29 02:49:53;;;;;;;;;;;;;;;;;;1033373;28;20436;-79
2021/07/29 02:50:23;;;;;;;;;;;;;;;;;;1037510;28;19917;-79
2021/07/29 02:50:54;;;;;;;;;;;;;;;;;;1037308;28;19910;-78
2021/07/29 02:51:24;;;;;;;;;;;;;;;;;;1029069;28;20657;-78
2021/07/29 02:51:54;;;;;;;;;;;;;;;;;;1029022;28;20295;-77
2021/07/29 02:52:24;;;;;;;;;;;;;;;;;;1024902;29;20004;-78
2021/07/29 02:52:55;;;;;;;;;;;;;;;;;;1028698;28;20344;-78
2021/07/29 02:53:25;;;;;;;;;;;;;;;;;;1028997;28;19944;-78
2021/07/29 02:53:56;;;;;;;;;;;;;;;;;;1033205;28;20045;-78
2021/07/29 02:54:26;;;;;;;;;;;;;;;;;;1037081;28;19902;-78
2021/07/29 02:54:56;;;;;;;;;;;;;;;;;;1037173;28;19905;-78
2021/07/29 02:55:27;;;;;;;;;;;;;;;;;;1037273;28;19905;-78
2021/07/29 02:55:58;;;;;;;;;;;;;;;;;;1037125;28;19906;-78
2021/07/29 02:56:28;;;;;;;;;;;;;;;;;;1037240;28;19901;-78
2021/07/29 02:56:58;;;;;;;;;;;;;;;;;;1037051;28;19913;-78
2021/07/29 02:57:28;;;;;;;;;;;;;;;;;;1037033;28;19906;-78
2021/07/29 02:57:59;;;;;;;;;;;;;;;;;;1037309;28;20352;-79
2021/07/29 02:58:32;;;;;;;;;;;;;;;;;;1036991;28;20433;-78
2021/07/29 02:59:02;;;;;;;;;;;;;;;;;;1036699;28;19960;-78
2021/07/29 02:59:32;;;;;;;;;;;;;;;;;;1033026;28;19902;-78
2021/07/29 03:00:03;;;;;;;;;;;;;;;;;;1033124;28;19906;-78
2021/07/29 03:00:33;;;;;;;;;;;;;;;;;;1032898;28;19920;-77
2021/07/29 03:01:03;;;;;;;;;;;;;;;;;;1029022;28;19925;-77
2021/07/29 03:01:34;;;;;;;;;;;;;;;;;;1033000;28;19969;-78
2021/07/29 03:02:04;;;;;;;;;;;;;;;;;;1032715;28;20415;-78
2021/07/29 03:02:34;;;;;;;;;;;;;;;;;;1037097;28;19945;-78
2021/07/29 03:03:04;;;;;;;;;;;;;;;;;;1036746;28;19948;-78
2021/07/29 03:03:35;;;;;;;;;;;;;;;;;;1036714;28;19992;-78
2021/07/29 03:04:05;;;;;;;;;;;;;;;;;;1034288;28;19930;-77
2021/07/29 03:04:35;;;;;;;;;;;;;;;;;;1025727;28;19907;-78
2021/07/29 03:05:05;;;;;;;;;;;;;;;;;;1025178;28;19910;-78
2021/07/29 03:05:36;;;;;;;;;;;;;;;;;;1027502;28;19907;-78
2021/07/29 03:06:06;;;;;;;;;;;;;;;;;;1033310;28;19945;-78
2021/07/29 03:06:36;;;;;;;;;;;;;;;;;;1037501;28;19913;-78
2021/07/29 03:07:06;;;;;;;;;;;;;;;;;;1037252;28;19988;-78
2021/07/29 03:07:37;;;;;;;;;;;;;;;;;;1037062;28;19906;-78
2021/07/29 03:08:07;;;;;;;;;;;;;;;;;;1033142;28;19906;-79
2021/07/29 03:08:37;;;;;;;;;;;;;;;;;;1029119;28;19945;-78
2021/07/29 03:09:10;;;;;;;;;;;;;;;;;;1033264;28;19910;-78
2021/07/29 03:09:40;;;;;;;;;;;;;;;;;;1033386;28;19913;-79
2021/07/29 03:10:12;;;;;;;;;;;;;;;;;;1036198;28;19912;-79
2021/07/29 03:10:42;;;;;;;;;;;;;;;;;;1037218;28;19956;-79
2021/07/29 03:11:13;;;;;;;;;;;;;;;;;;1033570;28;20391;-79
2021/07/29 03:11:43;;;;;;;;;;;;;;;;;;1033018;28;19902;-79
2021/07/29 03:12:13;;;;;;;;;;;;;;;;;;1025230;29;19907;-79
2021/07/29 03:12:43;;;;;;;;;;;;;;;;;;1025070;29;20337;-79
2021/07/29 03:13:14;;;;;;;;;;;;;;;;;;1025155;28;19993;-79
2021/07/29 03:13:44;;;;;;;;;;;;;;;;;;1027444;28;19921;-79
2021/07/29 03:14:16;;;;;;;;;;;;;;;;;;1033270;28;19993;-79
2021/07/29 03:14:46;;;;;;;;;;;;;;;;;;1037247;28;20066;-79
2021/07/29 03:15:16;;;;;;;;;;;;;;;;;;1037060;28;19977;-78
2021/07/29 03:15:47;;;;;;;;;;;;;;;;;;1037101;28;19910;-78
2021/07/29 03:16:17;;;;;;;;;;;;;;;;;;1037361;28;19972;-79
2021/07/29 03:16:47;;;;;;;;;;;;;;;;;;1035154;28;20000;-79
2021/07/29 03:17:17;;;;;;;;;;;;;;;;;;1032869;28;20359;-79
2021/07/29 03:17:48;;;;;;;;;;;;;;;;;;1028842;28;19917;-78
2021/07/29 03:18:18;;;;;;;;;;;;;;;;;;1029025;28;19910;-79
2021/07/29 03:18:48;;;;;;;;;;;;;;;;;;1028943;28;20300;-78
2021/07/29 03:19:19;;;;;;;;;;;;;;;;;;1029131;28;19910;-79
2021/07/29 03:19:49;;;;;;;;;;;;;;;;;;1029184;28;19918;-79
2021/07/29 03:20:20;;;;;;;;;;;;;;;;;;1026805;28;20000;-79
2021/07/29 03:20:51;;;;;;;;;;;;;;;;;;1029316;28;19910;-80
2021/07/29 03:21:21;;;;;;;;;;;;;;;;;;1025571;28;19980;-80
2021/07/29 03:21:52;;;;;;;;;;;;;;;;;;1029308;28;19917;-80
2021/07/29 03:22:22;;;;;;;;;;;;;;;;;;1028086;28;19910;-79
2021/07/29 03:22:53;;;;;;;;;;;;;;;;;;1028895;28;19949;-80
2021/07/29 03:23:24;;;;;;;;;;;;;;;;;;1033186;28;19906;-80
2021/07/29 03:23:54;;;;;;;;;;;;;;;;;;1031267;28;19949;-80
2021/07/29 03:24:24;;;;;;;;;;;;;;;;;;1028953;28;19918;-79
2021/07/29 03:24:55;;;;;;;;;;;;;;;;;;1025089;29;20384;-79
2021/07/29 03:25:25;;;;;;;;;;;;;;;;;;1025054;28;20273;-79
2021/07/29 03:25:55;;;;;;;;;;;;;;;;;;1025067;29;19974;-79
2021/07/29 03:26:26;;;;;;;;;;;;;;;;;;1024980;28;19913;-79
2021/07/29 03:26:56;;;;;;;;;;;;;;;;;;1028990;28;19914;-79
2021/07/29 03:27:26;;;;;;;;;;;;;;;;;;1032299;28;20283;-80
2021/07/29 03:27:56;;;;;;;;;;;;;;;;;;1033507;28;19906;-78
2021/07/29 03:28:27;;;;;;;;;;;;;;;;;;1024944;28;19919;-78
2021/07/29 03:28:57;;;;;;;;;;;;;;;;;;1026207;28;19910;-79